createdAt,value
2017-10-22T00:00:58.880Z,92.40
2017-10-22T00:03:26.263Z,92.50
2017-10-22T00:05:54.147Z,93.00
2017-10-22T00:08:21.113Z,92.70
2017-10-22T00:10:49.082Z,92.90
2017-10-22T00:13:16.273Z,93.00
2017-10-22T00:15:44.361Z,92.90
2017-10-22T00:18:12.024Z,93.00
2017-10-22T00:20:39.561Z,93.20
2017-10-22T00:23:06.961Z,93.20
2017-10-22T00:25:33.882Z,93.30
2017-10-22T00:28:02.248Z,93.20
2017-10-22T00:30:29.573Z,93.20
2017-10-22T00:32:56.497Z,93.20
2017-10-22T00:35:23.792Z,93.20
2017-10-22T00:37:53.207Z,93.00
2017-10-22T00:40:21.237Z,92.90
2017-10-22T00:42:49.449Z,92.70
2017-10-22T00:45:16.420Z,92.50
2017-10-22T00:47:43.905Z,92.50
2017-10-22T00:50:12.536Z,92.50
2017-10-22T00:52:39.888Z,92.50
2017-10-22T00:55:07.199Z,92.60
2017-10-22T00:57:37.883Z,92.50
2017-10-22T01:00:05.180Z,92.50
2017-10-22T01:02:32.586Z,92.60
2017-10-22T01:05:01.459Z,92.70
2017-10-22T01:07:28.586Z,92.60
2017-10-22T01:09:55.723Z,92.50
2017-10-22T01:12:23.785Z,92.40
2017-10-22T01:14:50.998Z,92.30
2017-10-22T01:17:19.076Z,92.00
2017-10-22T01:19:46.892Z,91.80
2017-10-22T01:22:15.433Z,91.60
2017-10-22T01:24:43.035Z,91.60
2017-10-22T01:27:11.509Z,91.50
2017-10-22T01:29:42.556Z,91.40
2017-10-22T01:32:09.788Z,91.40
2017-10-22T01:34:37.417Z,91.20
2017-10-22T01:37:06.561Z,91.30
2017-10-22T01:39:34.293Z,91.40
2017-10-22T01:42:03.498Z,91.60
2017-10-22T01:44:30.896Z,91.70
2017-10-22T01:46:59.539Z,91.70
2017-10-22T01:49:27.436Z,91.90
2017-10-22T01:51:54.636Z,91.70
2017-10-22T01:54:21.991Z,91.70
2017-10-22T01:56:49.426Z,91.60
2017-10-22T01:59:20.400Z,91.40
2017-10-22T02:01:50.690Z,91.40
2017-10-22T02:04:18.760Z,91.20
2017-10-22T02:06:46.683Z,91.20
2017-10-22T02:09:14.445Z,91.30
2017-10-22T02:11:47.789Z,91.10
2017-10-22T02:14:16.939Z,91.10
2017-10-22T02:16:44.324Z,91.30
2017-10-22T02:19:12.061Z,91.10
2017-10-22T02:21:39.349Z,91.20
2017-10-22T02:24:06.864Z,90.70
2017-10-22T02:26:33.959Z,90.60
2017-10-22T02:29:01.733Z,90.50
2017-10-22T02:31:30.761Z,90.00
2017-10-22T02:33:58.112Z,90.00
2017-10-22T02:36:26.313Z,89.90
2017-10-22T02:38:54.107Z,89.60
2017-10-22T02:41:22.106Z,89.90
2017-10-22T02:43:50.433Z,90.10
2017-10-22T02:46:17.329Z,90.10
2017-10-22T02:48:46.679Z,90.50
2017-10-22T02:51:13.708Z,90.60
2017-10-22T02:53:41.081Z,90.50
2017-10-22T02:56:08.370Z,90.70
2017-10-22T02:58:36.342Z,90.70
2017-10-22T03:01:04.375Z,90.60
2017-10-22T03:03:31.409Z,90.60
2017-10-22T03:05:59.877Z,90.40
2017-10-22T03:08:27.505Z,90.00
2017-10-22T03:10:54.553Z,89.80
2017-10-22T03:13:21.883Z,89.80
2017-10-22T03:15:49.479Z,89.20
2017-10-22T03:18:18.695Z,88.60
2017-10-22T03:20:46.554Z,88.50
2017-10-22T03:23:13.624Z,88.10
2017-10-22T03:25:41.520Z,87.90
2017-10-22T03:28:09.238Z,87.90
2017-10-22T03:30:38.483Z,87.40
2017-10-22T03:33:06.140Z,87.70
2017-10-22T03:35:33.424Z,87.80
2017-10-22T03:38:00.971Z,87.60
2017-10-22T03:40:28.131Z,87.60
2017-10-22T03:42:56.804Z,87.70
2017-10-22T03:45:23.944Z,87.80
2017-10-22T03:47:51.263Z,87.60
2017-10-22T03:50:18.872Z,87.60
2017-10-22T03:52:46.444Z,87.50
2017-10-22T03:55:13.564Z,87.30
2017-10-22T03:57:40.896Z,87.00
2017-10-22T04:00:08.321Z,86.70
2017-10-22T04:02:35.408Z,87.10
2017-10-22T04:05:02.428Z,86.80
2017-10-22T04:07:30.424Z,87.00
2017-10-22T04:09:57.402Z,86.10
2017-10-22T04:12:24.624Z,86.10
2017-10-22T04:14:52.064Z,85.80
2017-10-22T04:17:23.180Z,86.10
2017-10-22T04:19:50.320Z,86.10
2017-10-22T04:22:17.308Z,86.60
2017-10-22T04:24:45.432Z,87.30
2017-10-22T04:27:27.979Z,86.60
2017-10-22T04:29:55.581Z,86.70
2017-10-22T04:32:22.485Z,86.80
2017-10-22T04:34:49.564Z,86.90
2017-10-22T04:37:16.548Z,87.10
2017-10-22T04:39:43.604Z,87.10
2017-10-22T04:42:11.479Z,87.10
2017-10-22T04:44:39.249Z,87.10
2017-10-22T04:47:07.561Z,86.90
2017-10-22T04:49:35.297Z,86.90
2017-10-22T04:52:02.281Z,86.90
2017-10-22T04:54:29.536Z,86.90
2017-10-22T04:56:56.808Z,87.70
2017-10-22T04:59:24.388Z,87.40
2017-10-22T05:01:51.645Z,87.20
2017-10-22T05:04:21.151Z,87.60
2017-10-22T05:06:50.252Z,88.10
2017-10-22T05:09:17.637Z,88.40
2017-10-22T05:11:44.704Z,88.80
2017-10-22T05:14:12.184Z,89.00
2017-10-22T05:16:40.703Z,89.70
2017-10-22T05:19:08.159Z,89.80
2017-10-22T05:21:36.289Z,90.00
2017-10-22T05:24:03.387Z,90.30
2017-10-22T05:26:31.766Z,89.90
2017-10-22T05:29:01.349Z,89.70
2017-10-22T05:31:28.377Z,89.50
2017-10-22T05:33:56.020Z,89.40
2017-10-22T05:36:23.747Z,89.20
2017-10-22T05:38:51.504Z,88.90
2017-10-22T05:41:19.533Z,88.50
2017-10-22T05:43:47.171Z,88.20
2017-10-22T05:46:14.620Z,88.00
2017-10-22T05:48:41.805Z,87.90
2017-10-22T05:51:09.244Z,88.00
2017-10-22T05:53:37.189Z,86.80
2017-10-22T05:56:05.850Z,87.30
2017-10-22T05:58:32.819Z,86.90
2017-10-22T06:01:00.583Z,86.50
2017-10-22T06:03:27.949Z,86.50
2017-10-22T06:05:56.688Z,86.60
2017-10-22T06:08:23.937Z,85.90
2017-10-22T06:10:54.106Z,85.80
2017-10-22T06:13:21.469Z,84.50
2017-10-22T06:15:50.182Z,83.80
2017-10-22T06:18:20.588Z,83.00
2017-10-22T06:20:48.368Z,82.90
2017-10-22T06:23:16.435Z,81.70
2017-10-22T06:25:43.625Z,81.90
2017-10-22T06:28:11.020Z,81.20
2017-10-22T06:30:38.587Z,80.90
2017-10-22T06:33:08.704Z,80.40
2017-10-22T06:35:36.157Z,80.00
2017-10-22T06:38:03.054Z,79.00
2017-10-22T06:40:30.540Z,79.30
2017-10-22T06:42:58.831Z,79.50
2017-10-22T06:45:26.595Z,78.70
2017-10-22T06:47:54.069Z,78.60
2017-10-22T06:50:21.460Z,78.50
2017-10-22T06:52:49.582Z,78.30
2017-10-22T06:55:17.670Z,77.90
2017-10-22T06:57:45.785Z,76.80
2017-10-22T07:00:13.611Z,76.10
2017-10-22T07:02:41.749Z,75.00
2017-10-22T07:05:09.517Z,72.50
2017-10-22T07:07:37.726Z,69.80
2017-10-22T07:10:04.976Z,69.50
2017-10-22T07:12:32.013Z,69.50
2017-10-22T07:14:59.080Z,70.90
2017-10-22T07:17:27.477Z,71.90
2017-10-22T07:19:54.497Z,73.00
2017-10-22T07:22:22.125Z,72.70
2017-10-22T07:24:49.204Z,72.90
2017-10-22T07:27:16.260Z,73.20
2017-10-22T07:29:43.221Z,73.50
2017-10-22T07:32:11.360Z,73.80
2017-10-22T07:34:38.564Z,73.60
2017-10-22T07:37:06.886Z,73.80
2017-10-22T07:39:34.381Z,73.00
2017-10-22T07:42:01.612Z,72.60
2017-10-22T07:44:28.746Z,72.80
2017-10-22T07:46:56.841Z,72.30
2017-10-22T07:49:24.575Z,72.60
2017-10-22T07:51:51.872Z,72.60
2017-10-22T07:54:18.756Z,72.90
2017-10-22T07:56:45.951Z,72.60
2017-10-22T07:59:13.887Z,72.60
2017-10-22T08:01:41.411Z,72.30
2017-10-22T08:04:09.177Z,72.50
2017-10-22T08:06:37.034Z,72.60
2017-10-22T08:09:07.156Z,72.20
2017-10-22T08:11:34.910Z,72.60
2017-10-22T08:14:03.086Z,71.30
2017-10-22T08:16:30.390Z,71.60
2017-10-22T08:18:57.980Z,71.20
2017-10-22T08:21:27.370Z,71.30
2017-10-22T08:23:55.540Z,71.80
2017-10-22T08:26:23.486Z,70.90
2017-10-22T08:28:52.625Z,70.90
2017-10-22T08:31:20.270Z,70.70
2017-10-22T08:33:47.724Z,70.00
2017-10-22T08:36:14.924Z,70.40
2017-10-22T08:38:42.517Z,70.10
2017-10-22T08:41:12.695Z,69.80
2017-10-22T08:43:40.171Z,70.20
2017-10-22T08:46:09.478Z,69.70
2017-10-22T08:48:40.729Z,69.60
2017-10-22T08:51:08.389Z,68.90
2017-10-22T08:53:38.905Z,69.20
2017-10-22T08:56:06.553Z,69.10
2017-10-22T08:58:34.416Z,69.80
2017-10-22T09:01:02.359Z,70.00
2017-10-22T09:03:30.718Z,70.30
2017-10-22T09:05:58.033Z,70.00
2017-10-22T09:08:25.585Z,70.50
2017-10-22T09:10:52.845Z,71.30
2017-10-22T09:13:21.490Z,70.50
2017-10-22T09:15:48.676Z,71.00
2017-10-22T09:18:17.286Z,70.30
2017-10-22T09:20:44.392Z,71.20
2017-10-22T09:23:14.756Z,71.40
2017-10-22T09:25:42.933Z,71.40
2017-10-22T09:28:13.873Z,71.90
2017-10-22T09:30:44.294Z,71.10
2017-10-22T09:33:16.278Z,71.00
2017-10-22T09:35:54.138Z,70.20
2017-10-22T09:38:23.205Z,69.50
2017-10-22T09:40:51.130Z,69.50
2017-10-22T09:43:18.623Z,69.50
2017-10-22T09:45:46.757Z,69.00
2017-10-22T09:48:16.308Z,69.40
2017-10-22T09:50:53.571Z,69.20
2017-10-22T09:53:22.012Z,69.20
2017-10-22T09:55:49.553Z,68.90
2017-10-22T09:58:21.755Z,68.20
2017-10-22T10:00:48.984Z,68.80
2017-10-22T10:03:17.728Z,68.60
2017-10-22T10:05:45.091Z,69.30
2017-10-22T10:08:12.423Z,70.10
2017-10-22T10:10:41.812Z,69.70
2017-10-22T10:13:09.034Z,69.60
2017-10-22T10:15:36.741Z,69.60
2017-10-22T10:18:04.065Z,69.00
2017-10-22T10:20:31.202Z,69.50
2017-10-22T10:22:59.339Z,68.40
2017-10-22T10:25:27.024Z,68.40
2017-10-22T10:28:04.179Z,68.60
2017-10-22T10:30:38.734Z,66.80
2017-10-22T10:33:14.982Z,67.10
2017-10-22T10:35:50.204Z,67.40
2017-10-22T10:38:31.751Z,66.30
2017-10-22T10:41:09.714Z,66.10
2017-10-22T10:43:42.100Z,66.30
2017-10-22T10:46:21.848Z,67.90
2017-10-22T10:51:46.866Z,68.70
2017-10-22T10:54:29.500Z,68.70
2017-10-22T10:57:08.913Z,67.90
2017-10-22T10:59:56.777Z,67.60
2017-10-22T11:02:39.871Z,67.90
2017-10-22T11:05:20.329Z,67.90
2017-10-22T11:07:54.254Z,68.40
2017-10-22T11:10:37.525Z,69.20
2017-10-22T11:13:16.360Z,69.30
2017-10-22T11:15:53.420Z,69.40
2017-10-22T11:21:13.496Z,69.70
2017-10-22T11:23:53.469Z,69.80
2017-10-22T11:26:34.545Z,69.60
2017-10-22T11:29:21.032Z,70.70
2017-10-22T11:31:58.747Z,70.10
2017-10-22T11:34:36.527Z,69.40
2017-10-22T11:37:22.030Z,68.50
2017-10-22T11:40:06.888Z,67.80
2017-10-22T11:42:48.030Z,67.80
2017-10-22T11:45:33.592Z,69.10
2017-10-22T11:51:01.686Z,69.40
2017-10-22T12:01:54.554Z,71.10
2017-10-22T12:04:30.401Z,70.40
2017-10-22T12:09:53.127Z,71.10
2017-10-22T12:12:30.084Z,71.30
2017-10-22T12:15:13.466Z,71.10
2017-10-22T12:17:57.149Z,71.40
2017-10-22T12:20:33.366Z,71.80
2017-10-22T12:23:15.738Z,76.20
2017-10-22T12:25:52.378Z,76.20
2017-10-22T12:28:36.799Z,77.20
2017-10-22T12:31:15.605Z,78.50
2017-10-22T12:33:51.105Z,80.10
2017-10-22T12:36:31.275Z,81.90
2017-10-22T12:39:01.675Z,80.90
2017-10-22T12:41:28.756Z,81.20
2017-10-22T12:43:56.725Z,81.60
2017-10-22T12:46:33.420Z,81.80
2017-10-22T12:49:08.579Z,82.10
2017-10-22T12:51:44.518Z,82.10
2017-10-22T12:54:16.981Z,81.90
2017-10-22T12:56:46.004Z,81.90
2017-10-22T12:59:14.233Z,81.50
2017-10-22T13:01:41.632Z,81.70
2017-10-22T13:04:14.431Z,82.40
2017-10-22T13:06:43.454Z,82.60
2017-10-22T13:09:10.951Z,82.30
2017-10-22T13:11:38.577Z,82.70
2017-10-22T13:14:09.963Z,82.40
2017-10-22T13:16:40.904Z,82.20
2017-10-22T13:19:11.111Z,82.70
2017-10-22T13:21:46.105Z,82.60
2017-10-22T13:24:14.451Z,83.90
2017-10-22T13:26:41.520Z,83.80
2017-10-22T13:29:10.032Z,84.40
2017-10-22T13:31:47.543Z,84.90
2017-10-22T13:34:18.616Z,84.90
2017-10-22T13:36:45.897Z,84.90
2017-10-22T13:39:12.985Z,84.90
2017-10-22T13:41:52.299Z,85.10
2017-10-22T13:44:20.354Z,85.10
2017-10-22T13:46:48.962Z,84.80
2017-10-22T13:49:16.601Z,85.00
2017-10-22T13:51:43.905Z,85.30
2017-10-22T13:54:12.308Z,85.70
2017-10-22T13:56:40.336Z,84.90
2017-10-22T13:59:07.446Z,84.90
2017-10-22T14:01:34.457Z,84.50
2017-10-22T14:04:03.005Z,84.50
2017-10-22T14:06:32.507Z,83.90
2017-10-22T14:09:01.197Z,83.80
2017-10-22T14:11:29.772Z,83.20
2017-10-22T14:13:57.894Z,83.30
2017-10-22T14:16:25.829Z,84.10
2017-10-22T14:18:53.919Z,84.60
2017-10-22T14:21:24.645Z,84.30
2017-10-22T14:24:05.904Z,84.60
2017-10-22T14:26:35.876Z,83.50
2017-10-22T14:29:04.143Z,84.30
2017-10-22T14:31:31.794Z,84.20
2017-10-22T14:34:00.078Z,84.00
2017-10-22T14:36:31.827Z,84.00
2017-10-22T14:39:00.502Z,83.60
2017-10-22T14:41:31.325Z,83.60
2017-10-22T14:44:00.350Z,83.70
2017-10-22T14:46:27.380Z,83.90
2017-10-22T14:48:56.300Z,84.10
2017-10-22T14:51:27.501Z,84.00
2017-10-22T14:53:56.333Z,83.90
2017-10-22T14:56:23.245Z,83.90
2017-10-22T14:58:54.471Z,84.50
2017-10-22T15:01:27.212Z,84.70
2017-10-22T15:03:57.026Z,84.60
2017-10-22T15:06:28.607Z,86.00
2017-10-22T15:08:57.975Z,86.10
2017-10-22T15:11:26.464Z,85.60
2017-10-22T15:13:53.840Z,85.60
2017-10-22T15:16:21.657Z,85.10
2017-10-22T15:18:53.044Z,85.40
2017-10-22T15:21:20.826Z,85.70
2017-10-22T15:23:48.471Z,86.10
2017-10-22T15:26:18.513Z,86.40
2017-10-22T15:28:47.990Z,86.50
2017-10-22T15:31:23.498Z,86.30
2017-10-22T15:33:51.377Z,86.60
2017-10-22T15:36:24.595Z,86.30
2017-10-22T15:38:55.007Z,86.30
2017-10-22T15:41:25.100Z,86.30
2017-10-22T15:43:55.884Z,86.20
2017-10-22T15:46:23.250Z,86.30
2017-10-22T15:48:52.905Z,86.70
2017-10-22T15:51:21.401Z,87.20
2017-10-22T15:53:55.304Z,87.00
2017-10-22T15:56:24.957Z,87.00
2017-10-22T15:58:53.404Z,88.00
2017-10-22T16:01:25.247Z,87.40
2017-10-22T16:03:56.121Z,88.00
2017-10-22T16:06:24.126Z,88.40
2017-10-22T16:08:58.068Z,88.40
2017-10-22T16:11:25.689Z,88.90
2017-10-22T16:13:54.149Z,89.00
2017-10-22T16:16:25.824Z,88.90
2017-10-22T16:18:56.012Z,89.50
2017-10-22T16:21:29.117Z,88.90
2017-10-22T16:23:56.518Z,88.80
2017-10-22T16:26:41.349Z,88.90
2017-10-22T16:29:17.432Z,88.80
2017-10-22T16:34:31.656Z,89.00
2017-10-22T16:37:05.181Z,89.00
2017-10-22T16:39:34.841Z,88.90
2017-10-22T16:42:02.206Z,88.90
2017-10-22T16:44:29.352Z,88.90
2017-10-22T16:46:57.721Z,89.00
2017-10-22T16:49:25.112Z,89.00
2017-10-22T16:51:52.605Z,89.40
2017-10-22T16:54:21.561Z,88.90
2017-10-22T16:56:49.526Z,88.90
2017-10-22T16:59:16.915Z,88.80
2017-10-22T17:01:44.749Z,88.80
2017-10-22T17:04:11.666Z,88.40
2017-10-22T17:06:39.523Z,88.60
2017-10-22T17:09:06.674Z,88.60
2017-10-22T17:11:34.095Z,89.10
2017-10-22T17:14:02.511Z,88.70
2017-10-22T17:16:29.582Z,89.00
2017-10-22T17:18:56.963Z,89.00
2017-10-22T17:21:24.288Z,88.70
2017-10-22T17:23:51.322Z,88.60
2017-10-22T17:26:19.353Z,88.30
2017-10-22T17:28:46.450Z,88.30
2017-10-22T17:31:14.791Z,88.40
2017-10-22T17:33:42.125Z,88.30
2017-10-22T17:36:11.906Z,88.30
2017-10-22T17:38:38.912Z,88.40
2017-10-22T17:41:06.651Z,88.00
2017-10-22T17:43:33.653Z,88.60
2017-10-22T17:46:01.690Z,87.90
2017-10-22T17:48:29.737Z,88.20
2017-10-22T17:50:57.808Z,87.80
2017-10-22T17:53:24.792Z,88.10
2017-10-22T17:55:53.017Z,88.30
2017-10-22T17:58:21.393Z,88.90
2017-10-22T18:00:48.448Z,88.10
2017-10-22T18:03:27.650Z,88.00
2017-10-22T18:05:55.454Z,87.80
2017-10-22T18:08:22.494Z,87.90
2017-10-22T18:10:50.176Z,87.80
2017-10-22T18:13:21.923Z,87.40
2017-10-22T18:15:48.981Z,87.50
2017-10-22T18:18:25.807Z,87.30
2017-10-22T18:21:02.971Z,87.30
2017-10-22T18:23:43.469Z,87.00
2017-10-22T18:28:58.588Z,87.00
2017-10-22T18:31:38.132Z,86.80
2017-10-22T18:34:16.480Z,87.00
2017-10-22T18:36:52.283Z,87.00
2017-10-22T18:39:36.026Z,87.00
2017-10-22T18:42:16.409Z,87.50
2017-10-22T18:44:54.883Z,87.20
2017-10-22T18:47:29.184Z,87.10
2017-10-22T18:50:00.219Z,87.30
2017-10-22T18:52:39.626Z,87.10
2017-10-22T18:55:15.692Z,87.20
2017-10-22T18:57:46.959Z,87.20
2017-10-22T19:00:29.793Z,87.40
2017-10-22T19:03:09.821Z,87.20
2017-10-22T19:08:37.372Z,87.20
2017-10-22T19:11:17.981Z,86.90
2017-10-22T19:14:01.209Z,87.20
2017-10-22T19:16:41.558Z,86.70
2017-10-22T19:19:18.242Z,86.30
2017-10-22T19:22:00.810Z,86.40
2017-10-22T19:24:42.080Z,86.30
2017-10-22T19:27:19.713Z,86.50
2017-10-22T19:29:58.946Z,86.10
2017-10-22T19:32:38.482Z,86.30
2017-10-22T19:35:10.391Z,86.40
2017-10-22T19:37:37.597Z,86.50
2017-10-22T19:40:15.627Z,86.80
2017-10-22T19:42:54.607Z,86.70
2017-10-22T19:45:37.274Z,86.60
2017-10-22T19:48:18.455Z,86.60
2017-10-22T19:50:51.593Z,87.10
2017-10-22T19:53:20.748Z,86.40
2017-10-22T19:55:52.412Z,86.10
2017-10-22T19:58:30.208Z,86.10
2017-10-22T20:01:05.594Z,86.50
2017-10-22T20:03:34.516Z,86.20
2017-10-22T20:06:02.103Z,86.10
2017-10-22T20:08:29.720Z,86.20
2017-10-22T20:11:04.149Z,86.20
2017-10-22T20:13:32.160Z,86.50
2017-10-22T20:16:04.927Z,86.50
2017-10-22T20:18:33.609Z,86.60
2017-10-22T20:21:02.615Z,86.40
2017-10-22T20:23:31.538Z,86.40
2017-10-22T20:26:03.523Z,86.40
2017-10-22T20:28:32.922Z,86.30
2017-10-22T20:31:01.205Z,86.30
2017-10-22T20:33:30.076Z,86.60
2017-10-22T20:36:00.389Z,86.60
2017-10-22T20:38:28.688Z,86.60
2017-10-22T20:41:00.196Z,86.20
2017-10-22T20:43:28.505Z,86.50
2017-10-22T20:45:57.464Z,86.50
2017-10-22T20:48:29.193Z,86.50
2017-10-22T20:50:59.971Z,86.40
2017-10-22T20:53:28.659Z,86.10
2017-10-22T20:55:56.557Z,86.00
2017-10-22T20:58:24.867Z,85.60
2017-10-22T21:00:53.331Z,85.80
2017-10-22T21:03:22.421Z,86.80
2017-10-22T21:05:58.041Z,87.10
2017-10-22T21:08:25.983Z,87.00
2017-10-22T21:10:59.786Z,87.00
2017-10-22T21:13:42.019Z,87.00
2017-10-22T21:16:18.335Z,86.90
2017-10-22T21:18:54.340Z,87.20
2017-10-22T21:21:29.311Z,87.30
2017-10-22T21:23:57.008Z,87.50
2017-10-22T21:26:24.395Z,87.70
2017-10-22T21:28:51.481Z,87.70
2017-10-22T21:31:18.566Z,88.00
2017-10-22T21:33:45.725Z,88.10
2017-10-22T21:36:12.849Z,88.20
2017-10-22T21:38:41.390Z,86.90
2017-10-22T21:41:08.583Z,86.70
2017-10-22T21:43:38.770Z,86.70
2017-10-22T21:46:07.605Z,86.60
2017-10-22T21:48:34.730Z,87.90
2017-10-22T21:51:02.073Z,88.00
2017-10-22T21:53:29.781Z,87.10
2017-10-22T21:55:57.216Z,88.00
2017-10-22T21:58:28.276Z,86.80
2017-10-22T22:00:55.732Z,87.90
2017-10-22T22:03:23.411Z,87.00
2017-10-22T22:05:50.502Z,87.10
2017-10-22T22:08:18.982Z,86.90
2017-10-22T22:10:47.549Z,87.20
2017-10-22T22:13:15.116Z,87.10
2017-10-22T22:15:42.649Z,86.90
2017-10-22T22:18:10.280Z,87.00
2017-10-22T22:20:37.357Z,87.00
2017-10-22T22:23:05.849Z,87.00
2017-10-22T22:25:32.924Z,87.00
2017-10-22T22:28:01.032Z,87.20
2017-10-22T22:30:28.105Z,87.40
2017-10-22T22:32:56.493Z,87.00
2017-10-22T22:35:25.138Z,87.20
2017-10-22T22:37:52.378Z,87.10
2017-10-22T22:40:21.633Z,86.80
2017-10-22T22:42:49.124Z,86.80
2017-10-22T22:45:17.066Z,86.70
2017-10-22T22:47:44.533Z,86.80
2017-10-22T22:50:11.985Z,86.80
2017-10-22T22:52:39.245Z,86.70
2017-10-22T22:55:07.022Z,86.50
2017-10-22T22:57:34.829Z,86.20
2017-10-22T23:00:02.629Z,86.30
2017-10-22T23:02:29.608Z,86.30
2017-10-22T23:04:56.880Z,86.40
2017-10-22T23:07:24.145Z,85.90
2017-10-22T23:09:52.565Z,86.10
2017-10-22T23:12:23.001Z,86.20
2017-10-22T23:14:51.501Z,86.10
2017-10-22T23:17:18.668Z,86.20
2017-10-22T23:19:47.211Z,86.40
2017-10-22T23:22:14.316Z,85.80
2017-10-22T23:24:41.885Z,85.80
2017-10-22T23:27:09.757Z,85.80
2017-10-22T23:29:39.456Z,86.00
2017-10-22T23:32:07.991Z,86.10
2017-10-22T23:34:36.428Z,86.00
2017-10-22T23:37:03.823Z,86.10
2017-10-22T23:39:31.077Z,86.40
2017-10-22T23:41:58.073Z,86.30
2017-10-22T23:44:25.794Z,86.10
2017-10-22T23:46:53.656Z,86.00
2017-10-22T23:49:22.341Z,86.00
2017-10-22T23:51:50.207Z,86.00
2017-10-22T23:54:18.310Z,86.30
2017-10-22T23:56:47.091Z,86.00
2017-10-22T23:59:14.368Z,85.90
